createdAt,value
2019-05-10T00:02:00.072Z,10.30
2019-05-10T00:04:46.714Z,10.30
2019-05-10T00:07:33.575Z,10.30
2019-05-10T00:10:01.652Z,10.20
2019-05-10T00:12:43.916Z,10.20
2019-05-10T00:15:13.254Z,10.10
2019-05-10T00:17:42.061Z,10.20
2019-05-10T00:20:10.668Z,10.20
2019-05-10T00:22:39.189Z,10.20
2019-05-10T00:25:09.202Z,10.20
2019-05-10T00:27:38.046Z,10.30
2019-05-10T00:30:08.099Z,10.20
2019-05-10T00:32:36.953Z,10.10
2019-05-10T00:35:06.777Z,10.20
2019-05-10T00:37:35.598Z,10.20
2019-05-10T00:40:08.372Z,10.20
2019-05-10T00:42:36.834Z,10.20
2019-05-10T00:45:07.070Z,10.30
2019-05-10T00:47:35.522Z,10.20
2019-05-10T00:50:05.978Z,10.30
2019-05-10T00:52:34.770Z,10.20
2019-05-10T00:55:17.771Z,10.20
2019-05-10T00:57:34.574Z,10.30
2019-05-10T01:00:04.260Z,10.30
2019-05-10T01:02:33.014Z,10.40
2019-05-10T01:05:05.277Z,10.40
2019-05-10T01:07:34.084Z,10.50
2019-05-10T01:10:02.876Z,10.50
2019-05-10T01:12:46.378Z,10.50
2019-05-10T01:15:14.998Z,10.50
2019-05-10T01:17:43.443Z,10.50
2019-05-10T01:20:12.322Z,10.50
2019-05-10T01:22:41.057Z,10.60
2019-05-10T01:25:09.925Z,10.60
2019-05-10T01:27:38.378Z,10.60
2019-05-10T01:30:22.382Z,10.60
2019-05-10T01:32:50.812Z,10.60
2019-05-10T01:35:19.562Z,10.70
2019-05-10T01:37:50.813Z,10.70
2019-05-10T01:40:19.266Z,10.70
2019-05-10T01:42:47.700Z,10.70
2019-05-10T01:45:16.292Z,10.80
2019-05-10T01:47:44.796Z,10.80
2019-05-10T01:50:13.334Z,10.70
2019-05-10T01:52:49.188Z,10.70
2019-05-10T01:55:17.637Z,10.80
2019-05-10T01:57:46.372Z,10.80
2019-05-10T02:00:15.257Z,10.80
2019-05-10T02:02:43.712Z,10.80
2019-05-10T02:05:12.777Z,10.80
2019-05-10T02:07:41.229Z,10.80
2019-05-10T02:10:11.556Z,10.80
2019-05-10T02:12:40.060Z,10.70
2019-05-10T02:15:08.635Z,10.70
2019-05-10T02:17:37.084Z,10.90
2019-05-10T02:20:07.765Z,10.90
2019-05-10T02:22:36.224Z,10.80
2019-05-10T02:25:05.993Z,10.80
2019-05-10T02:27:34.490Z,10.80
2019-05-10T02:30:03.014Z,10.90
2019-05-10T02:32:31.513Z,10.70
2019-05-10T02:34:59.971Z,10.70
2019-05-10T02:37:28.713Z,10.60
2019-05-10T02:39:57.157Z,10.60
2019-05-10T02:42:29.290Z,10.70
2019-05-10T02:44:56.083Z,10.70
2019-05-10T02:47:24.521Z,10.60
2019-05-10T02:49:52.944Z,10.70
2019-05-10T02:52:21.778Z,10.70
2019-05-10T02:54:50.202Z,10.70
2019-05-10T02:57:20.558Z,10.70
2019-05-10T02:59:49.799Z,10.70
2019-05-10T03:02:18.596Z,10.60
2019-05-10T03:04:47.362Z,10.50
2019-05-10T03:07:18.400Z,10.40
2019-05-10T03:09:49.226Z,10.40
2019-05-10T03:12:23.582Z,10.50
2019-05-10T03:14:57.869Z,10.40
2019-05-10T03:17:27.926Z,10.40
2019-05-10T03:19:56.772Z,10.50
2019-05-10T03:22:25.974Z,10.60
2019-05-10T03:24:54.606Z,10.70
2019-05-10T03:27:23.273Z,10.60
2019-05-10T03:30:05.206Z,10.50
2019-05-10T03:32:33.795Z,10.50
2019-05-10T03:35:02.447Z,10.50
2019-05-10T03:37:31.080Z,10.50
2019-05-10T03:39:59.867Z,10.40
2019-05-10T03:42:30.787Z,10.60
2019-05-10T03:45:02.374Z,10.50
2019-05-10T03:47:31.037Z,10.50
2019-05-10T03:49:59.508Z,10.60
2019-05-10T03:52:27.925Z,10.60
2019-05-10T03:54:56.390Z,10.50
2019-05-10T03:57:25.181Z,10.30
2019-05-10T03:59:54.947Z,10.20
2019-05-10T04:02:35.515Z,10.20
2019-05-10T04:05:05.982Z,10.30
2019-05-10T04:07:34.439Z,10.50
2019-05-10T04:10:03.557Z,10.60
2019-05-10T04:12:32.077Z,10.70
2019-05-10T04:15:00.507Z,10.90
2019-05-10T04:17:28.981Z,10.90
2019-05-10T04:19:57.400Z,10.80
2019-05-10T04:22:26.110Z,10.70
2019-05-10T04:24:54.584Z,10.80
2019-05-10T04:27:32.490Z,10.70
2019-05-10T04:29:53.260Z,10.80
2019-05-10T04:32:22.120Z,10.80
2019-05-10T04:34:50.905Z,10.80
2019-05-10T04:37:19.336Z,10.70
2019-05-10T04:39:47.856Z,10.80
2019-05-10T04:42:17.862Z,10.80
2019-05-10T04:44:46.335Z,10.90
2019-05-10T04:47:14.771Z,10.90
2019-05-10T04:49:43.216Z,10.80
2019-05-10T04:52:11.662Z,10.70
2019-05-10T04:54:40.100Z,10.70
2019-05-10T04:57:08.740Z,10.90
2019-05-10T04:59:40.148Z,10.70
2019-05-10T05:02:08.681Z,10.80
2019-05-10T05:04:37.448Z,10.90
2019-05-10T05:07:05.926Z,11.00
2019-05-10T05:09:34.367Z,11.10
2019-05-10T05:12:02.800Z,11.10
2019-05-10T05:14:31.676Z,11.20
2019-05-10T05:17:00.195Z,11.20
2019-05-10T05:19:29.077Z,11.30
2019-05-10T05:21:57.513Z,11.20
2019-05-10T05:24:25.993Z,11.10
2019-05-10T05:26:54.838Z,11.10
2019-05-10T05:29:23.289Z,11.10
2019-05-10T05:31:53.954Z,11.10
2019-05-10T05:34:22.444Z,11.10
2019-05-10T05:36:50.875Z,11.10
2019-05-10T05:39:19.621Z,11.10
2019-05-10T05:41:49.700Z,11.20
2019-05-10T05:44:20.241Z,11.00
2019-05-10T05:46:48.773Z,11.00
2019-05-10T05:49:17.212Z,11.10
2019-05-10T05:51:45.650Z,11.10
2019-05-10T05:54:15.158Z,11.10
2019-05-10T05:56:50.445Z,11.10
2019-05-10T05:59:23.662Z,11.20
2019-05-10T06:01:49.860Z,11.30
2019-05-10T06:04:18.289Z,11.40
2019-05-10T06:06:46.748Z,11.50
2019-05-10T06:09:15.182Z,11.40
2019-05-10T06:11:43.616Z,11.50
2019-05-10T06:14:12.818Z,11.60
2019-05-10T06:16:44.849Z,11.50
2019-05-10T06:19:11.818Z,11.50
2019-05-10T06:21:40.269Z,11.50
2019-05-10T06:24:13.541Z,11.60
2019-05-10T06:26:38.896Z,11.60
2019-05-10T06:29:16.160Z,11.70
2019-05-10T06:31:37.489Z,11.60
2019-05-10T06:34:05.957Z,11.60
2019-05-10T06:36:34.448Z,11.50
2019-05-10T06:39:04.832Z,11.60
2019-05-10T06:41:33.673Z,11.80
2019-05-10T06:44:04.122Z,11.80
2019-05-10T06:46:35.339Z,11.90
2019-05-10T06:49:08.296Z,11.90
2019-05-10T06:51:34.012Z,11.90
2019-05-10T06:54:02.470Z,11.90
2019-05-10T06:56:30.916Z,11.90
2019-05-10T06:59:12.300Z,11.80
2019-05-10T07:01:29.517Z,11.80
2019-05-10T07:03:57.959Z,11.70
2019-05-10T07:06:26.721Z,11.70
2019-05-10T07:08:58.098Z,11.70
2019-05-10T07:11:25.336Z,11.80
2019-05-10T07:13:53.760Z,11.50
2019-05-10T07:16:25.551Z,11.60
2019-05-10T07:18:54.725Z,11.70
2019-05-10T07:21:22.552Z,11.80
2019-05-10T07:23:51.003Z,11.80
2019-05-10T07:26:24.106Z,11.70
2019-05-10T07:28:51.628Z,11.60
2019-05-10T07:31:23.446Z,11.60
2019-05-10T07:33:50.304Z,11.70
2019-05-10T07:36:20.781Z,11.70
2019-05-10T07:38:48.938Z,11.70
2019-05-10T07:41:19.430Z,11.80
2019-05-10T07:43:48.377Z,11.90
2019-05-10T07:46:16.964Z,12.00
2019-05-10T07:48:47.394Z,12.00
2019-05-10T07:51:15.587Z,11.90
2019-05-10T07:53:49.964Z,11.90
2019-05-10T07:56:18.422Z,11.80
2019-05-10T07:58:46.849Z,11.90
2019-05-10T08:01:15.315Z,11.80
2019-05-10T08:03:48.022Z,11.80
2019-05-10T08:06:15.710Z,11.80
2019-05-10T08:08:44.473Z,11.80
2019-05-10T08:11:13.249Z,11.70
2019-05-10T08:13:41.715Z,11.90
2019-05-10T08:16:16.762Z,12.10
2019-05-10T08:18:42.523Z,12.30
2019-05-10T08:21:21.804Z,12.40
2019-05-10T08:23:41.507Z,12.40
2019-05-10T08:26:16.157Z,12.40
2019-05-10T08:28:44.495Z,12.30
2019-05-10T08:31:12.356Z,12.30
2019-05-10T08:33:46.360Z,12.30
2019-05-10T08:36:12.233Z,12.30
2019-05-10T08:38:46.774Z,12.30
2019-05-10T08:41:14.728Z,12.40
2019-05-10T08:43:43.011Z,12.40
2019-05-10T08:46:12.101Z,12.50
2019-05-10T08:48:53.983Z,12.50
2019-05-10T08:51:22.900Z,12.40
2019-05-10T08:53:53.596Z,12.40
2019-05-10T08:56:24.145Z,12.50
2019-05-10T08:58:53.644Z,12.40
2019-05-10T09:01:29.561Z,12.50
2019-05-10T09:04:07.149Z,12.60
2019-05-10T09:06:35.006Z,12.60
2019-05-10T09:09:08.163Z,12.50
2019-05-10T09:11:36.017Z,12.50
2019-05-10T09:14:04.536Z,12.50
2019-05-10T09:16:39.391Z,12.70
2019-05-10T09:19:03.217Z,13.00
2019-05-10T09:21:32.259Z,13.30
2019-05-10T09:24:04.857Z,13.40
2019-05-10T09:26:32.232Z,13.60
2019-05-10T09:29:03.991Z,13.80
2019-05-10T09:31:32.708Z,14.00
2019-05-10T09:34:02.472Z,13.90
2019-05-10T09:36:36.026Z,13.80
2019-05-10T09:39:03.433Z,13.60
2019-05-10T09:41:33.803Z,13.40
2019-05-10T09:44:03.058Z,13.20
2019-05-10T09:46:32.411Z,13.10
2019-05-10T09:49:13.737Z,13.00
2019-05-10T09:51:33.154Z,13.10
2019-05-10T09:54:01.727Z,12.90
2019-05-10T09:56:33.062Z,12.80
2019-05-10T09:59:00.697Z,12.60
2019-05-10T10:01:29.438Z,12.30
2019-05-10T10:04:01.669Z,12.10
2019-05-10T10:06:29.829Z,11.90
2019-05-10T10:09:00.939Z,11.80
2019-05-10T10:11:30.642Z,11.80
2019-05-10T10:14:02.020Z,11.70
2019-05-10T10:16:29.623Z,11.70
2019-05-10T10:18:58.049Z,11.70
2019-05-10T10:21:34.981Z,11.60
2019-05-10T10:24:00.042Z,11.80
2019-05-10T10:26:26.974Z,11.90
2019-05-10T10:28:59.559Z,12.00
2019-05-10T10:31:30.392Z,12.20
2019-05-10T10:34:02.703Z,12.30
2019-05-10T10:36:27.428Z,12.10
2019-05-10T10:38:56.077Z,12.00
2019-05-10T10:41:27.175Z,11.90
2019-05-10T10:43:55.102Z,11.60
2019-05-10T10:46:23.538Z,11.60
2019-05-10T10:48:51.991Z,11.50
2019-05-10T10:51:20.427Z,11.40
2019-05-10T10:53:48.886Z,11.20
2019-05-10T10:56:17.710Z,10.80
2019-05-10T10:58:49.610Z,10.90
2019-05-10T11:01:25.397Z,10.90
2019-05-10T11:03:50.651Z,11.10
2019-05-10T11:06:19.096Z,11.30
2019-05-10T11:08:47.574Z,11.50
2019-05-10T11:11:16.061Z,11.70
2019-05-10T11:13:46.276Z,11.80
2019-05-10T11:16:15.553Z,11.80
2019-05-10T11:18:44.489Z,12.10
2019-05-10T11:21:12.929Z,12.40
2019-05-10T11:23:41.993Z,12.50
2019-05-10T11:26:10.989Z,12.80
2019-05-10T11:28:43.959Z,12.90
2019-05-10T11:31:11.399Z,13.00
2019-05-10T11:33:41.436Z,13.20
2019-05-10T11:36:11.474Z,13.40
2019-05-10T11:38:41.986Z,13.60
2019-05-10T11:41:13.557Z,13.90
2019-05-10T11:43:41.940Z,14.00
2019-05-10T11:46:11.784Z,14.20
2019-05-10T11:48:42.144Z,14.50
2019-05-10T11:53:41.569Z,14.60
2019-05-10T11:56:14.143Z,14.50
2019-05-10T11:58:45.992Z,14.50
2019-05-10T11:59:04.923Z,14.50
2019-05-10T12:01:17.652Z,14.50
2019-05-10T12:03:46.721Z,14.40
2019-05-10T12:06:15.161Z,14.50
2019-05-10T12:08:43.943Z,14.40
2019-05-10T12:11:27.553Z,14.40
2019-05-10T12:13:42.566Z,14.40
2019-05-10T12:16:14.888Z,14.20
2019-05-10T12:21:11.475Z,14.00
2019-05-10T12:23:51.952Z,13.90
2019-05-10T12:26:31.279Z,14.10
2019-05-10T12:28:51.069Z,13.20
2019-05-10T12:31:21.051Z,12.90
2019-05-10T12:33:50.718Z,12.70
2019-05-10T12:36:27.293Z,12.50
2019-05-10T12:38:52.623Z,12.50
2019-05-10T12:41:23.375Z,12.70
2019-05-10T12:43:51.810Z,13.00
2019-05-10T12:46:20.715Z,13.00
2019-05-10T12:48:51.459Z,13.30
2019-05-10T12:51:21.122Z,13.80
2019-05-10T12:53:52.055Z,13.90
2019-05-10T12:56:19.984Z,13.90
2019-05-10T12:58:56.644Z,14.30
2019-05-10T13:01:18.970Z,14.70
2019-05-10T13:03:47.770Z,15.00
2019-05-10T13:06:19.484Z,15.40
2019-05-10T13:08:48.444Z,15.60
2019-05-10T13:11:18.860Z,15.70
2019-05-10T13:13:47.073Z,15.60
2019-05-10T13:16:15.510Z,15.40
2019-05-10T13:18:52.342Z,15.30
2019-05-10T13:21:20.693Z,15.20
2019-05-10T13:23:47.106Z,14.90
2019-05-10T13:26:18.733Z,14.50
2019-05-10T13:28:47.187Z,14.20
2019-05-10T13:31:15.647Z,13.80
2019-05-10T13:33:44.402Z,13.30
2019-05-10T13:36:13.131Z,13.00
2019-05-10T13:38:44.042Z,12.70
2019-05-10T13:41:12.103Z,12.40
2019-05-10T13:43:40.591Z,12.20
2019-05-10T13:46:09.442Z,11.90
2019-05-10T13:48:37.873Z,11.70
2019-05-10T13:51:06.342Z,11.60
2019-05-10T13:53:35.101Z,11.60
2019-05-10T13:56:03.582Z,11.60
2019-05-10T13:58:32.021Z,12.60
2019-05-10T14:01:00.480Z,13.70
2019-05-10T14:03:44.158Z,13.90
2019-05-10T14:06:04.130Z,14.10
2019-05-10T14:08:32.585Z,15.50
2019-05-10T14:11:01.876Z,17.20
2019-05-10T14:13:35.657Z,18.80
2019-05-10T14:16:02.549Z,18.80
2019-05-10T14:18:52.253Z,18.90
2019-05-10T14:21:20.677Z,19.50
2019-05-10T14:23:49.153Z,19.00
2019-05-10T14:26:18.293Z,17.30
2019-05-10T14:28:52.545Z,16.10
2019-05-10T14:31:17.429Z,15.70
2019-05-10T14:33:49.550Z,15.50
2019-05-10T14:36:17.556Z,16.50
2019-05-10T14:38:47.495Z,18.10
2019-05-10T14:41:16.567Z,17.60
2019-05-10T14:43:45.001Z,17.30
2019-05-10T14:46:14.101Z,18.60
2019-05-10T14:48:42.939Z,19.00
2019-05-10T14:51:14.699Z,19.60
2019-05-10T14:53:43.133Z,20.50
2019-05-10T14:56:14.020Z,20.70
2019-05-10T14:58:51.200Z,20.80
2019-05-10T15:01:19.683Z,20.70
2019-05-10T15:03:48.113Z,20.80
2019-05-10T15:06:16.607Z,19.90
2019-05-10T15:08:45.060Z,19.50
2019-05-10T15:11:13.562Z,19.90
2019-05-10T15:13:42.336Z,20.80
2019-05-10T15:16:13.130Z,21.30
2019-05-10T15:18:41.012Z,21.30
2019-05-10T15:21:09.737Z,20.50
2019-05-10T15:23:38.191Z,19.50
2019-05-10T15:26:11.675Z,18.70
2019-05-10T15:28:42.146Z,18.20
2019-05-10T15:31:09.854Z,17.60
2019-05-10T15:33:38.313Z,17.10
2019-05-10T15:36:08.767Z,17.00
2019-05-10T15:38:40.573Z,16.80
2019-05-10T15:41:07.365Z,16.70
2019-05-10T15:43:35.802Z,16.60
2019-05-10T15:46:04.389Z,16.60
2019-05-10T15:48:36.570Z,16.80
2019-05-10T15:51:03.327Z,16.80
2019-05-10T15:53:31.840Z,16.80
2019-05-10T15:56:03.938Z,16.70
2019-05-10T15:58:36.513Z,16.70
2019-05-10T16:01:02.498Z,16.80
2019-05-10T16:03:31.045Z,16.90
2019-05-10T16:06:00.994Z,16.80
2019-05-10T16:08:30.645Z,16.90
2019-05-10T16:11:00.137Z,16.80
2019-05-10T16:13:28.582Z,16.80
2019-05-10T16:15:58.222Z,16.80
2019-05-10T16:18:27.188Z,16.60
2019-05-10T16:20:55.621Z,16.40
2019-05-10T16:23:24.075Z,16.40
2019-05-10T16:25:52.910Z,16.20
2019-05-10T16:28:22.954Z,16.20
2019-05-10T16:30:51.554Z,16.00
2019-05-10T16:33:19.980Z,16.10
2019-05-10T16:35:51.852Z,16.10
2019-05-10T16:38:18.923Z,16.10
2019-05-10T16:40:58.777Z,16.00
2019-05-10T16:43:26.577Z,15.80
2019-05-10T16:45:55.055Z,15.80
2019-05-10T16:48:23.550Z,15.90
2019-05-10T16:50:52.031Z,15.90
2019-05-10T16:53:20.520Z,16.00
2019-05-10T16:55:48.949Z,16.10
2019-05-10T16:58:18.039Z,16.00
2019-05-10T17:00:48.075Z,16.10
2019-05-10T17:03:18.280Z,16.30
2019-05-10T17:05:53.335Z,16.40
2019-05-10T17:08:17.308Z,16.60
2019-05-10T17:10:45.769Z,16.50
2019-05-10T17:13:14.295Z,16.40
2019-05-10T17:15:42.733Z,16.30
2019-05-10T17:18:17.780Z,16.30
2019-05-10T17:20:45.350Z,16.30
2019-05-10T17:23:11.531Z,16.30
2019-05-10T17:25:40.742Z,16.10
2019-05-10T17:28:11.545Z,15.90
2019-05-10T17:30:40.000Z,15.90
2019-05-10T17:33:10.831Z,15.70
2019-05-10T17:35:42.205Z,15.60
2019-05-10T17:38:31.826Z,15.60
2019-05-10T17:41:00.697Z,15.50
2019-05-10T17:43:29.146Z,15.50
2019-05-10T17:45:57.609Z,15.50
2019-05-10T17:48:26.037Z,15.40
2019-05-10T17:50:54.597Z,15.40
2019-05-10T17:53:24.685Z,15.30
2019-05-10T17:55:55.698Z,15.20
2019-05-10T17:58:27.661Z,15.20
2019-05-10T18:00:54.118Z,15.10
2019-05-10T18:03:22.574Z,15.20
2019-05-10T18:05:53.337Z,15.20
2019-05-10T18:08:21.527Z,15.20
2019-05-10T18:10:49.967Z,15.10
2019-05-10T18:13:18.457Z,15.00
2019-05-10T18:15:46.890Z,14.90
2019-05-10T18:18:15.317Z,14.90
2019-05-10T18:20:44.916Z,14.90
2019-05-10T18:23:20.525Z,14.80
2019-05-10T18:25:43.639Z,14.80
2019-05-10T18:28:12.077Z,14.90
2019-05-10T18:30:40.528Z,14.80
2019-05-10T18:33:12.606Z,14.70
2019-05-10T18:35:39.129Z,14.70
2019-05-10T18:38:07.575Z,14.70
2019-05-10T18:40:36.020Z,14.70
2019-05-10T18:43:05.829Z,14.60
2019-05-10T18:45:34.496Z,14.60
2019-05-10T18:48:02.953Z,14.60
2019-05-10T18:50:31.415Z,14.60
2019-05-10T18:52:59.855Z,14.50
2019-05-10T18:55:28.305Z,14.50
2019-05-10T18:57:56.758Z,14.40
2019-05-10T19:00:25.480Z,14.30
2019-05-10T19:03:03.328Z,14.00
2019-05-10T19:05:33.041Z,13.80
2019-05-10T19:08:05.422Z,13.80
2019-05-10T19:10:31.950Z,13.80
2019-05-10T19:13:05.096Z,13.80
2019-05-10T19:15:31.266Z,13.90
2019-05-10T19:17:59.702Z,13.70
2019-05-10T19:20:34.210Z,13.70
2019-05-10T19:23:05.355Z,13.60
2019-05-10T19:25:32.885Z,13.60
2019-05-10T19:28:01.329Z,13.60
2019-05-10T19:30:29.784Z,13.60
2019-05-10T19:32:58.232Z,13.50
2019-05-10T19:35:29.904Z,13.50
2019-05-10T19:37:57.505Z,13.40
2019-05-10T19:40:26.297Z,13.40
2019-05-10T19:42:54.738Z,13.30
2019-05-10T19:45:23.191Z,13.30
2019-05-10T19:47:55.831Z,13.20
2019-05-10T19:50:24.424Z,13.10
2019-05-10T19:52:53.246Z,13.10
2019-05-10T19:55:24.424Z,13.00
2019-05-10T19:57:54.652Z,12.80
2019-05-10T20:00:23.116Z,12.70
2019-05-10T20:02:51.537Z,12.60
2019-05-10T20:05:19.979Z,12.50
2019-05-10T20:08:03.422Z,12.50
2019-05-10T20:10:32.202Z,12.40
2019-05-10T20:13:00.638Z,12.30
2019-05-10T20:15:29.132Z,12.40
2019-05-10T20:17:57.676Z,12.50
2019-05-10T20:20:26.287Z,12.50
2019-05-10T20:22:54.746Z,12.50
2019-05-10T20:25:23.168Z,12.50
2019-05-10T20:27:51.630Z,12.40
2019-05-10T20:30:20.487Z,12.40
2019-05-10T20:32:49.277Z,12.40
2019-05-10T20:35:35.908Z,12.40
2019-05-10T20:38:04.380Z,12.40
2019-05-10T20:40:36.793Z,12.30
2019-05-10T20:43:03.376Z,12.20
2019-05-10T20:45:31.852Z,12.30
2019-05-10T20:48:00.553Z,12.10
2019-05-10T20:50:29.023Z,11.80
2019-05-10T20:53:00.344Z,11.60
2019-05-10T20:55:28.799Z,11.50
2019-05-10T20:57:57.226Z,11.50
2019-05-10T21:00:26.049Z,11.70
2019-05-10T21:02:54.581Z,11.70
2019-05-10T21:05:23.013Z,11.80
2019-05-10T21:07:51.470Z,11.80
2019-05-10T21:10:19.916Z,11.70
2019-05-10T21:12:48.375Z,11.60
2019-05-10T21:15:17.080Z,11.70
2019-05-10T21:17:45.542Z,11.60
2019-05-10T21:20:14.104Z,11.60
2019-05-10T21:22:42.620Z,11.50
2019-05-10T21:25:11.529Z,11.40
2019-05-10T21:27:40.001Z,11.40
2019-05-10T21:30:08.868Z,11.30
2019-05-10T21:32:37.601Z,11.40
2019-05-10T21:35:06.172Z,11.40
2019-05-10T21:37:34.669Z,11.30
2019-05-10T21:40:03.850Z,11.30
2019-05-10T21:42:32.284Z,11.30
2019-05-10T21:45:00.849Z,11.40
2019-05-10T21:47:29.336Z,11.40
2019-05-10T21:49:57.849Z,11.50
2019-05-10T21:52:26.355Z,11.50
2019-05-10T21:54:54.799Z,11.50
2019-05-10T21:57:23.285Z,11.50
2019-05-10T21:59:51.855Z,11.40
2019-05-10T22:02:20.349Z,11.40
2019-05-10T22:04:49.192Z,11.50
2019-05-10T22:07:17.737Z,11.40
2019-05-10T22:09:46.813Z,11.40
2019-05-10T22:12:15.666Z,11.30
2019-05-10T22:14:44.218Z,11.20
2019-05-10T22:17:12.782Z,11.20
2019-05-10T22:19:41.258Z,11.20
2019-05-10T22:22:09.821Z,11.10
2019-05-10T22:24:38.372Z,11.10
2019-05-10T22:27:07.304Z,11.10
2019-05-10T22:29:35.775Z,11.30
2019-05-10T22:32:04.341Z,11.40
2019-05-10T22:34:32.880Z,11.70
2019-05-10T22:37:01.764Z,11.80
2019-05-10T22:39:30.317Z,11.80
2019-05-10T22:41:58.897Z,11.80
2019-05-10T22:44:27.444Z,11.70
2019-05-10T22:46:55.992Z,11.70
2019-05-10T22:49:27.559Z,11.70
2019-05-10T22:51:56.184Z,11.70
2019-05-10T22:54:24.752Z,11.80
2019-05-10T22:56:53.636Z,11.70
2019-05-10T22:59:22.133Z,11.60
2019-05-10T23:01:50.688Z,11.60
2019-05-10T23:04:19.268Z,11.60
2019-05-10T23:06:47.811Z,11.50
2019-05-10T23:09:24.506Z,11.60
2019-05-10T23:11:46.531Z,11.60
2019-05-10T23:14:15.071Z,11.70
2019-05-10T23:16:43.649Z,11.60
2019-05-10T23:19:12.191Z,11.60
2019-05-10T23:21:43.940Z,11.70
2019-05-10T23:24:14.456Z,11.80
2019-05-10T23:26:43.020Z,11.70
2019-05-10T23:29:11.497Z,11.70
2019-05-10T23:31:40.066Z,11.80
2019-05-10T23:34:08.617Z,11.70
2019-05-10T23:36:37.187Z,11.70
2019-05-10T23:39:07.155Z,11.70
2019-05-10T23:41:35.717Z,11.60
2019-05-10T23:44:04.449Z,11.60
2019-05-10T23:46:32.993Z,11.60
2019-05-10T23:49:01.558Z,11.60
2019-05-10T23:51:30.100Z,11.60
2019-05-10T23:54:04.548Z,11.60
2019-05-10T23:56:33.101Z,11.50
2019-05-10T23:59:01.710Z,11.40
